Time;durP1;ratioP1;P1;durP2;ratioP2;P2;SDS_P1;SDS_P2;PMS_P1;PMS_P2;Temp;Humidity;BMP_temperature;BMP_pressure;BME280_temperature;BME280_humidity;BME280_pressure;Samples;Min_cycle;Max_cycle;Signal;HPM_P1;HPM_P2
2022/06/28 00:01:27;;;;;;;3.92;2.65;;;;;;;;;;5073866;28;20313;-78
2022/06/28 00:03:55;;;;;;;4.07;2.67;;;;;;;;;;5077684;28;20205;-77
2022/06/28 00:06:22;;;;;;;2.55;2.40;;;;;;;;;;5087536;28;20263;-78
2022/06/28 00:08:49;;;;;;;2.55;2.08;;;;;;;;;;5086623;28;20251;-79
2022/06/28 00:11:16;;;;;;;3.22;1.90;;;;;;;;;;5069932;28;20340;-77
2022/06/28 00:13:44;;;;;;;3.55;1.95;;;;;;;;;;5061771;28;20302;-77
2022/06/28 00:16:15;;;;;;;6.78;5.53;;;;;;;;;;5056785;28;20322;-77
2022/06/28 00:18:43;;;;;;;4.22;3.55;;;;;;;;;;5059916;28;20812;-77
2022/06/28 00:21:10;;;;;;;2.40;2.20;;;;;;;;;;5062934;28;20221;-78
2022/06/28 00:23:39;;;;;;;1.85;1.75;;;;;;;;;;5078084;28;20225;-77
2022/06/28 00:26:07;;;;;;;2.10;2.00;;;;;;;;;;5063019;28;20216;-77
2022/06/28 00:28:35;;;;;;;2.63;1.90;;;;;;;;;;5076852;28;20740;-77
2022/06/28 00:31:03;;;;;;;1.98;1.88;;;;;;;;;;5076311;28;20263;-79
2022/06/28 00:33:30;;;;;;;1.90;1.80;;;;;;;;;;5072656;28;20209;-77
2022/06/28 00:35:58;;;;;;;2.33;2.10;;;;;;;;;;5084292;28;20251;-78
2022/06/28 00:38:25;;;;;;;4.05;2.00;;;;;;;;;;5076909;28;20248;-78
2022/06/28 00:40:53;;;;;;;1.83;1.73;;;;;;;;;;5081609;28;20708;-78
2022/06/28 00:43:21;;;;;;;1.70;1.60;;;;;;;;;;5087933;28;20247;-79
2022/06/28 00:45:48;;;;;;;3.50;1.90;;;;;;;;;;5086876;28;20201;-77
2022/06/28 00:48:17;;;;;;;2.03;1.80;;;;;;;;;;5080006;28;20230;-77
2022/06/28 00:50:45;;;;;;;2.65;1.77;;;;;;;;;;5081454;28;20204;-77
2022/06/28 00:53:17;;;;;;;4.10;2.10;;;;;;;;;;5080779;28;20209;-78
2022/06/28 00:55:44;;;;;;;2.47;1.80;;;;;;;;;;5076223;28;20291;-77
2022/06/28 00:58:11;;;;;;;1.90;1.73;;;;;;;;;;5062025;28;20239;-77
2022/06/28 01:00:41;;;;;;;3.13;2.40;;;;;;;;;;5060486;28;21357;-77
2022/06/28 01:03:09;;;;;;;2.60;1.90;;;;;;;;;;5065808;28;20340;-77
2022/06/28 01:05:37;;;;;;;1.88;1.77;;;;;;;;;;5058657;28;20228;-76
2022/06/28 01:08:05;;;;;;;3.20;2.90;;;;;;;;;;5068091;28;20223;-75
2022/06/28 01:10:34;;;;;;;2.00;1.85;;;;;;;;;;5055379;28;20232;-79
2022/06/28 01:13:02;;;;;;;1.73;1.63;;;;;;;;;;5057943;28;20231;-76
2022/06/28 01:15:29;;;;;;;1.70;1.60;;;;;;;;;;5064230;28;20359;-76
2022/06/28 01:17:56;;;;;;;1.63;1.52;;;;;;;;;;5055952;28;20251;-77
2022/06/28 01:20:25;;;;;;;1.80;1.70;;;;;;;;;;5077426;28;20204;-78
2022/06/28 01:22:54;;;;;;;1.60;1.50;;;;;;;;;;5070873;28;20311;-78
2022/06/28 01:25:22;;;;;;;1.80;1.63;;;;;;;;;;5079721;28;20197;-77
2022/06/28 01:27:50;;;;;;;1.63;1.52;;;;;;;;;;5075806;28;21226;-78
2022/06/28 01:30:18;;;;;;;2.40;1.77;;;;;;;;;;5058469;28;20511;-78
2022/06/28 01:32:46;;;;;;;1.60;1.50;;;;;;;;;;5048318;28;20332;-77
2022/06/28 01:35:13;;;;;;;1.90;1.80;;;;;;;;;;5063636;28;20455;-76
2022/06/28 01:37:40;;;;;;;1.80;1.60;;;;;;;;;;5050468;28;20360;-77
2022/06/28 01:40:08;;;;;;;1.70;1.60;;;;;;;;;;5068569;28;20248;-78
2022/06/28 01:42:36;;;;;;;1.90;1.80;;;;;;;;;;5057866;28;20262;-78
2022/06/28 01:45:04;;;;;;;2.78;1.70;;;;;;;;;;5054212;28;20233;-78
2022/06/28 01:47:35;;;;;;;2.08;1.85;;;;;;;;;;5079443;28;20225;-78
2022/06/28 01:50:03;;;;;;;2.08;1.98;;;;;;;;;;5064631;28;20232;-77
2022/06/28 01:52:30;;;;;;;2.90;2.10;;;;;;;;;;5071433;28;20224;-78
2022/06/28 01:54:57;;;;;;;2.92;2.40;;;;;;;;;;5068664;28;20204;-78
2022/06/28 01:57:24;;;;;;;2.00;1.75;;;;;;;;;;5066340;28;20343;-78
2022/06/28 01:59:52;;;;;;;3.70;2.10;;;;;;;;;;5061247;28;22395;-76
2022/06/28 02:02:19;;;;;;;3.15;1.90;;;;;;;;;;5063291;28;20233;-77
2022/06/28 02:04:46;;;;;;;4.03;3.63;;;;;;;;;;5078927;28;20315;-77
2022/06/28 02:07:20;;;;;;;3.70;3.40;;;;;;;;;;5063937;28;20201;-76
2022/06/28 02:09:47;;;;;;;3.40;2.92;;;;;;;;;;5067302;28;20287;-76
2022/06/28 02:12:14;;;;;;;2.75;2.35;;;;;;;;;;5063649;28;20278;-78
2022/06/28 02:14:43;;;;;;;4.03;2.13;;;;;;;;;;5061368;28;20574;-78
2022/06/28 02:17:11;;;;;;;2.00;1.88;;;;;;;;;;5060904;28;20292;-77
2022/06/28 02:19:39;;;;;;;2.42;1.83;;;;;;;;;;5063926;28;20212;-76
2022/06/28 02:22:06;;;;;;;2.20;2.00;;;;;;;;;;5062945;28;20255;-78
2022/06/28 02:24:33;;;;;;;2.08;1.98;;;;;;;;;;5060246;28;20671;-78
2022/06/28 02:27:00;;;;;;;7.47;1.90;;;;;;;;;;5083804;28;20208;-77
2022/06/28 02:29:28;;;;;;;3.38;2.00;;;;;;;;;;5091735;28;20234;-78
2022/06/28 02:31:55;;;;;;;3.20;1.85;;;;;;;;;;5090607;28;20312;-76
2022/06/28 02:42:41;;;;;;;1.88;1.70;;;;;;;;;;5081934;28;20344;-77
2022/06/28 02:45:08;;;;;;;2.58;2.00;;;;;;;;;;5077190;28;20247;-77
2022/06/28 02:47:36;;;;;;;2.20;2.10;;;;;;;;;;5062582;28;20472;-77
2022/06/28 02:50:03;;;;;;;1.95;1.85;;;;;;;;;;5069065;28;20267;-78
2022/06/28 02:52:30;;;;;;;4.60;2.20;;;;;;;;;;5081998;28;20642;-78
2022/06/28 02:54:58;;;;;;;2.35;2.08;;;;;;;;;;5078390;28;20241;-77
2022/06/28 02:57:25;;;;;;;2.13;2.03;;;;;;;;;;5079527;28;20232;-75
2022/06/28 02:59:57;;;;;;;2.17;1.98;;;;;;;;;;5077986;28;20208;-77
2022/06/28 03:02:24;;;;;;;2.95;2.30;;;;;;;;;;5090027;28;20303;-77
2022/06/28 03:04:52;;;;;;;2.17;2.08;;;;;;;;;;5089398;28;20208;-77
2022/06/28 03:07:19;;;;;;;2.10;1.90;;;;;;;;;;5082917;28;20728;-78
2022/06/28 03:09:46;;;;;;;3.85;2.10;;;;;;;;;;5096496;28;20210;-77
2022/06/28 03:12:14;;;;;;;2.30;2.10;;;;;;;;;;5095384;28;20232;-78
2022/06/28 03:14:41;;;;;;;2.55;1.92;;;;;;;;;;5082247;28;20228;-78
2022/06/28 03:17:08;;;;;;;2.03;1.92;;;;;;;;;;5085822;28;20209;-78
2022/06/28 03:19:36;;;;;;;2.13;2.03;;;;;;;;;;5095681;28;20224;-77
2022/06/28 03:22:03;;;;;;;2.22;2.03;;;;;;;;;;5079094;28;20224;-78
2022/06/28 03:24:30;;;;;;;2.20;2.10;;;;;;;;;;5100743;28;20608;-78
2022/06/28 03:26:57;;;;;;;2.22;2.03;;;;;;;;;;5101672;28;20204;-79
2022/06/28 03:29:25;;;;;;;2.38;2.17;;;;;;;;;;5109032;28;20647;-76
2022/06/28 03:31:52;;;;;;;3.53;2.38;;;;;;;;;;5091469;28;20248;-79
2022/06/28 03:34:19;;;;;;;3.45;1.75;;;;;;;;;;5088627;28;20213;-78
2022/06/28 03:36:47;;;;;;;2.40;2.30;;;;;;;;;;5081573;28;20237;-78
2022/06/28 03:39:14;;;;;;;2.28;2.08;;;;;;;;;;5086126;28;20216;-78
2022/06/28 03:41:41;;;;;;;1.92;1.83;;;;;;;;;;5081878;28;20217;-77
2022/06/28 03:44:09;;;;;;;2.03;1.92;;;;;;;;;;5101527;27;20251;-78
2022/06/28 03:46:36;;;;;;;2.85;2.03;;;;;;;;;;5085166;28;20205;-79
2022/06/28 03:49:03;;;;;;;2.30;2.10;;;;;;;;;;5068155;28;20656;-78
2022/06/28 03:51:30;;;;;;;2.03;1.92;;;;;;;;;;5065346;28;20224;-78
2022/06/28 03:53:58;;;;;;;2.97;2.20;;;;;;;;;;5069093;28;20220;-78
2022/06/28 03:56:26;;;;;;;2.35;2.10;;;;;;;;;;5070369;28;20266;-78
2022/06/28 03:58:53;;;;;;;2.05;1.95;;;;;;;;;;5081409;27;20802;-77
2022/06/28 04:01:22;;;;;;;2.13;2.03;;;;;;;;;;5065714;28;20242;-78
2022/06/28 04:03:49;;;;;;;2.63;2.20;;;;;;;;;;5067015;28;20267;-78
2022/06/28 04:06:17;;;;;;;3.95;2.60;;;;;;;;;;5069270;28;20206;-79
2022/06/28 04:08:44;;;;;;;2.38;2.17;;;;;;;;;;5074622;28;20308;-78
2022/06/28 04:11:14;;;;;;;3.05;2.38;;;;;;;;;;5070991;28;20286;-79
2022/06/28 04:13:43;;;;;;;4.38;2.35;;;;;;;;;;5071235;28;20236;-79
2022/06/28 04:16:11;;;;;;;2.70;2.50;;;;;;;;;;5078459;28;20240;-79
2022/06/28 04:18:39;;;;;;;2.75;2.55;;;;;;;;;;5064047;28;20720;-78
2022/06/28 04:21:09;;;;;;;3.35;2.60;;;;;;;;;;5078287;27;20221;-76
2022/06/28 04:23:37;;;;;;;2.70;2.50;;;;;;;;;;5057778;28;20201;-77
2022/06/28 04:26:05;;;;;;;2.97;2.40;;;;;;;;;;5063780;28;20216;-75
2022/06/28 04:28:32;;;;;;;4.85;2.55;;;;;;;;;;5089341;28;20241;-75
2022/06/28 04:31:00;;;;;;;2.97;2.78;;;;;;;;;;5094160;28;20319;-76
2022/06/28 04:33:27;;;;;;;3.08;2.88;;;;;;;;;;5090748;28;20201;-79
2022/06/28 04:35:55;;;;;;;3.03;2.72;;;;;;;;;;5089907;28;20311;-77
2022/06/28 04:38:22;;;;;;;4.28;2.97;;;;;;;;;;5088008;28;20307;-75
2022/06/28 04:40:51;;;;;;;4.65;2.70;;;;;;;;;;5093145;28;20202;-77
2022/06/28 04:43:18;;;;;;;3.25;3.05;;;;;;;;;;5104164;27;20228;-78
2022/06/28 04:45:46;;;;;;;3.20;3.00;;;;;;;;;;5090569;28;20877;-77
2022/06/28 04:48:13;;;;;;;3.35;2.90;;;;;;;;;;5091308;28;20208;-75
2022/06/28 04:50:40;;;;;;;3.47;3.28;;;;;;;;;;5082277;28;20653;-77
2022/06/28 04:53:08;;;;;;;5.82;3.53;;;;;;;;;;5065409;28;20253;-76
2022/06/28 04:55:35;;;;;;;3.85;3.55;;;;;;;;;;5076865;28;20233;-76
2022/06/28 04:58:02;;;;;;;4.38;4.00;;;;;;;;;;5059379;28;20251;-77
2022/06/28 05:00:29;;;;;;;5.45;4.10;;;;;;;;;;5068138;28;20255;-76
2022/06/28 05:03:17;;;;;;;4.63;4.32;;;;;;;;;;5047248;28;20196;-76
2022/06/28 05:05:45;;;;;;;4.82;4.25;;;;;;;;;;5063965;28;20233;-76
2022/06/28 05:08:13;;;;;;;8.63;6.60;;;;;;;;;;5080297;28;20680;-77
2022/06/28 05:10:40;;;;;;;6.20;5.60;;;;;;;;;;5069181;28;20291;-76
2022/06/28 05:13:07;;;;;;;3.85;3.55;;;;;;;;;;5088716;28;20728;-77
2022/06/28 05:15:34;;;;;;;4.72;3.70;;;;;;;;;;5068734;28;20203;-76
2022/06/28 05:18:02;;;;;;;16.25;10.27;;;;;;;;;;5060891;28;20799;-77
2022/06/28 05:20:29;;;;;;;6.80;5.70;;;;;;;;;;5065902;28;20237;-76
2022/06/28 05:22:56;;;;;;;6.47;5.05;;;;;;;;;;5064614;28;20225;-76
2022/06/28 05:25:25;;;;;;;6.57;5.38;;;;;;;;;;5063535;28;20239;-77
2022/06/28 05:27:52;;;;;;;5.07;4.68;;;;;;;;;;5082088;28;20229;-76
2022/06/28 05:30:21;;;;;;;4.70;3.70;;;;;;;;;;5080605;28;20244;-76
2022/06/28 05:32:48;;;;;;;4.68;4.25;;;;;;;;;;5076951;28;20270;-76
2022/06/28 05:35:15;;;;;;;4.43;4.03;;;;;;;;;;5078933;28;20288;-76
2022/06/28 05:37:42;;;;;;;4.05;3.65;;;;;;;;;;5075808;28;20324;-76
2022/06/28 05:40:10;;;;;;;3.67;3.47;;;;;;;;;;5082078;28;20299;-77
2022/06/28 05:42:37;;;;;;;3.78;3.25;;;;;;;;;;5067783;28;20240;-76
2022/06/28 05:45:05;;;;;;;4.05;3.65;;;;;;;;;;5058388;28;20247;-76
2022/06/28 05:47:33;;;;;;;3.80;3.50;;;;;;;;;;5067079;28;21655;-77
2022/06/28 05:50:00;;;;;;;3.20;3.00;;;;;;;;;;5061500;28;20212;-77
2022/06/28 05:52:27;;;;;;;3.50;3.30;;;;;;;;;;5059614;28;20248;-77
2022/06/28 05:54:54;;;;;;;3.53;3.30;;;;;;;;;;5063207;28;20209;-75
2022/06/28 05:57:22;;;;;;;4.10;3.67;;;;;;;;;;5060486;28;20300;-76
2022/06/28 05:59:49;;;;;;;4.30;3.90;;;;;;;;;;5062088;28;20324;-76
2022/06/28 06:02:16;;;;;;;5.50;4.15;;;;;;;;;;5069476;28;20568;-76
2022/06/28 06:04:43;;;;;;;5.97;4.97;;;;;;;;;;5079807;28;20224;-76
2022/06/28 06:07:11;;;;;;;4.50;4.20;;;;;;;;;;5075599;28;20717;-77
2022/06/28 06:09:42;;;;;;;4.75;4.30;;;;;;;;;;5065698;28;20291;-77
2022/06/28 06:12:09;;;;;;;3.70;3.42;;;;;;;;;;5058643;28;20285;-76
2022/06/28 06:14:36;;;;;;;4.65;3.95;;;;;;;;;;5058577;28;20291;-76
2022/06/28 06:17:04;;;;;;;4.05;3.75;;;;;;;;;;5067266;28;20201;-77
2022/06/28 06:19:31;;;;;;;3.65;3.33;;;;;;;;;;5060740;28;22245;-77
2022/06/28 06:21:58;;;;;;;5.18;3.50;;;;;;;;;;5055327;28;20777;-77
2022/06/28 06:24:26;;;;;;;3.80;3.60;;;;;;;;;;5058599;28;20220;-77
2022/06/28 06:26:53;;;;;;;3.72;3.53;;;;;;;;;;5078835;28;20209;-77
2022/06/28 06:29:20;;;;;;;4.75;4.00;;;;;;;;;;5080146;28;21649;-75
2022/06/28 06:31:47;;;;;;;3.63;3.33;;;;;;;;;;5060546;28;20228;-77
2022/06/28 06:34:15;;;;;;;4.00;3.70;;;;;;;;;;5080390;28;20201;-77
2022/06/28 06:36:44;;;;;;;4.05;3.80;;;;;;;;;;5080393;28;20224;-77
2022/06/28 06:39:12;;;;;;;3.63;3.42;;;;;;;;;;5084133;28;20231;-78
2022/06/28 06:41:39;;;;;;;4.10;3.80;;;;;;;;;;5092456;28;20251;-76
2022/06/28 06:44:06;;;;;;;4.55;4.10;;;;;;;;;;5093593;28;20244;-78
2022/06/28 06:46:34;;;;;;;5.03;4.60;;;;;;;;;;5083458;28;20202;-77
2022/06/28 06:49:01;;;;;;;5.40;5.00;;;;;;;;;;5081352;28;20208;-76
2022/06/28 06:51:30;;;;;;;7.22;6.43;;;;;;;;;;5080287;28;20255;-76
2022/06/28 06:53:58;;;;;;;6.85;6.25;;;;;;;;;;5084206;28;20223;-78
2022/06/28 06:56:26;;;;;;;7.60;7.00;;;;;;;;;;5074094;28;20211;-80
2022/06/28 06:58:53;;;;;;;7.43;6.72;;;;;;;;;;5054331;28;20229;-78
2022/06/28 07:01:20;;;;;;;7.78;7.18;;;;;;;;;;5060753;28;20355;-77
2022/06/28 07:04:08;;;;;;;7.55;6.90;;;;;;;;;;5066971;28;20857;-77
2022/06/28 07:06:35;;;;;;;7.50;6.80;;;;;;;;;;5064273;28;20287;-76
2022/06/28 07:09:03;;;;;;;8.60;7.90;;;;;;;;;;5064605;28;20292;-76
2022/06/28 07:11:31;;;;;;;7.60;6.75;;;;;;;;;;5080913;28;20658;-79
2022/06/28 07:13:59;;;;;;;6.65;6.10;;;;;;;;;;5076106;28;20715;-74
2022/06/28 07:16:26;;;;;;;6.80;6.20;;;;;;;;;;5055698;28;20622;-78
2022/06/28 07:18:57;;;;;;;6.60;6.00;;;;;;;;;;5066816;28;20224;-76
2022/06/28 07:21:24;;;;;;;6.07;5.57;;;;;;;;;;5065984;28;20269;-74
2022/06/28 07:23:52;;;;;;;6.45;5.85;;;;;;;;;;5059161;28;20228;-77
2022/06/28 07:26:19;;;;;;;6.10;5.60;;;;;;;;;;5064797;28;20292;-78
2022/06/28 07:28:47;;;;;;;6.47;5.80;;;;;;;;;;5089639;27;20250;-78
2022/06/28 07:31:15;;;;;;;5.70;4.88;;;;;;;;;;5073655;28;20221;-76
2022/06/28 07:33:43;;;;;;;5.25;4.85;;;;;;;;;;5067172;28;20216;-76
2022/06/28 07:36:10;;;;;;;4.63;4.32;;;;;;;;;;5059762;28;20197;-79
2022/06/28 07:38:37;;;;;;;4.05;3.70;;;;;;;;;;5077788;28;20205;-79
2022/06/28 07:41:06;;;;;;;4.43;4.03;;;;;;;;;;5068103;28;20221;-78
2022/06/28 07:43:33;;;;;;;4.50;4.10;;;;;;;;;;5077910;27;20221;-76
2022/06/28 07:46:01;;;;;;;7.65;6.05;;;;;;;;;;5065402;28;20292;-76
2022/06/28 07:48:28;;;;;;;4.07;3.70;;;;;;;;;;5063111;28;20281;-79
2022/06/28 07:53:42;;;;;;;3.35;3.15;;;;;;;;;;5065394;28;20201;-78
2022/06/28 07:56:09;;;;;;;3.40;3.10;;;;;;;;;;5061878;28;20205;-79
2022/06/28 07:58:39;;;;;;;3.60;3.38;;;;;;;;;;5077864;27;20200;-80
2022/06/28 08:01:08;;;;;;;3.10;2.90;;;;;;;;;;5060324;28;20343;-78
2022/06/28 08:03:36;;;;;;;3.30;3.10;;;;;;;;;;5062311;28;20288;-76
2022/06/28 08:06:03;;;;;;;3.58;3.28;;;;;;;;;;5064175;28;20291;-78
2022/06/28 08:08:30;;;;;;;3.45;3.25;;;;;;;;;;5078678;27;20284;-77
2022/06/28 08:10:57;;;;;;;5.28;3.45;;;;;;;;;;5058818;28;20220;-76
2022/06/28 08:13:25;;;;;;;3.85;3.55;;;;;;;;;;5062130;28;20216;-78
2022/06/28 08:15:53;;;;;;;3.28;3.08;;;;;;;;;;5061071;28;20213;-78
2022/06/28 08:18:20;;;;;;;4.18;3.88;;;;;;;;;;5061993;28;20215;-79
2022/06/28 08:20:47;;;;;;;3.60;3.40;;;;;;;;;;5067456;28;20235;-78
2022/06/28 08:23:15;;;;;;;3.60;3.30;;;;;;;;;;5067224;28;20209;-79
2022/06/28 08:25:42;;;;;;;4.00;3.70;;;;;;;;;;5071177;28;20297;-81
2022/06/28 08:28:11;;;;;;;3.15;2.95;;;;;;;;;;5087901;28;20241;-79
2022/06/28 08:30:39;;;;;;;2.95;2.75;;;;;;;;;;5083218;28;20676;-77
2022/06/28 08:33:06;;;;;;;3.05;2.85;;;;;;;;;;5087601;28;20211;-78
2022/06/28 08:35:34;;;;;;;3.30;3.10;;;;;;;;;;5085644;28;20224;-78
2022/06/28 08:38:04;;;;;;;2.50;2.40;;;;;;;;;;5089187;28;20695;-79
2022/06/28 08:40:33;;;;;;;3.30;3.00;;;;;;;;;;5084043;28;20274;-79
2022/06/28 08:43:00;;;;;;;2.80;2.70;;;;;;;;;;5088843;28;20208;-79
2022/06/28 08:45:32;;;;;;;4.05;2.83;;;;;;;;;;5082631;28;20294;-78
2022/06/28 08:48:01;;;;;;;2.80;2.70;;;;;;;;;;5079221;28;20725;-79
2022/06/28 08:50:39;;;;;;;2.83;2.60;;;;;;;;;;5081934;28;20204;-78
2022/06/28 08:53:08;;;;;;;2.97;2.70;;;;;;;;;;5090281;28;20243;-80
2022/06/28 08:55:36;;;;;;;2.90;2.70;;;;;;;;;;5086653;28;20738;-78
2022/06/28 08:58:08;;;;;;;3.10;2.90;;;;;;;;;;5083566;28;20635;-78
2022/06/28 09:00:36;;;;;;;2.85;2.72;;;;;;;;;;5068320;28;20371;-78
2022/06/28 09:03:03;;;;;;;2.97;2.78;;;;;;;;;;5071865;28;20207;-79
2022/06/28 09:05:30;;;;;;;2.92;2.50;;;;;;;;;;5081784;28;20216;-78
2022/06/28 09:07:58;;;;;;;3.35;3.05;;;;;;;;;;5086633;28;20231;-78
2022/06/28 09:10:26;;;;;;;2.65;2.45;;;;;;;;;;5075183;28;20335;-78
2022/06/28 09:13:15;;;;;;;3.00;2.80;;;;;;;;;;5063794;28;20217;-77
2022/06/28 09:15:51;;;;;;;2.80;2.60;;;;;;;;;;5085966;28;20236;-79
2022/06/28 09:18:19;;;;;;;3.03;2.83;;;;;;;;;;5089481;28;20236;-78
2022/06/28 09:20:46;;;;;;;2.90;2.70;;;;;;;;;;5083201;28;20240;-78
2022/06/28 09:23:22;;;;;;;3.17;2.97;;;;;;;;;;5084365;28;20209;-78
2022/06/28 09:25:50;;;;;;;3.13;2.90;;;;;;;;;;5083390;28;20754;-79
2022/06/28 09:28:25;;;;;;;3.72;3.00;;;;;;;;;;5081356;28;20223;-78
2022/06/28 09:30:52;;;;;;;3.20;2.97;;;;;;;;;;5079955;28;20314;-78
2022/06/28 09:33:27;;;;;;;4.20;3.20;;;;;;;;;;5077769;28;20240;-80
2022/06/28 09:35:54;;;;;;;3.17;2.97;;;;;;;;;;5077264;28;20204;-79
2022/06/28 09:38:32;;;;;;;3.42;2.92;;;;;;;;;;5061900;28;20247;-77
2022/06/28 09:41:00;;;;;;;3.28;2.97;;;;;;;;;;5072485;28;20273;-79
2022/06/28 09:43:32;;;;;;;3.70;3.42;;;;;;;;;;5074405;28;20209;-79
2022/06/28 09:46:02;;;;;;;2.95;2.85;;;;;;;;;;5081352;28;20228;-80
2022/06/28 09:48:32;;;;;;;3.10;2.90;;;;;;;;;;5084993;28;20655;-80
2022/06/28 09:50:59;;;;;;;2.78;2.60;;;;;;;;;;5083942;28;20466;-78
2022/06/28 09:53:29;;;;;;;2.90;2.70;;;;;;;;;;5080661;28;20203;-80
2022/06/28 09:56:01;;;;;;;2.80;2.60;;;;;;;;;;5081651;28;20678;-79
2022/06/28 09:58:28;;;;;;;2.70;2.50;;;;;;;;;;5083337;28;20232;-79
2022/06/28 10:00:55;;;;;;;2.58;2.38;;;;;;;;;;5081028;28;20256;-77
2022/06/28 10:03:23;;;;;;;2.67;2.58;;;;;;;;;;5071059;28;20215;-78
2022/06/28 10:05:50;;;;;;;2.60;2.28;;;;;;;;;;5069755;28;20569;-78
2022/06/28 10:08:18;;;;;;;4.05;2.92;;;;;;;;;;5081684;28;20347;-79
2022/06/28 10:10:45;;;;;;;2.72;2.53;;;;;;;;;;5095527;28;20299;-78
2022/06/28 10:16:33;;;;;;;2.80;2.70;;;;;;;;;;5081293;28;20240;-82
2022/06/28 10:19:02;;;;;;;3.25;2.80;;;;;;;;;;5103239;28;20227;-78
2022/06/28 10:22:10;;;;;;;2.85;2.42;;;;;;;;;;5090701;28;20228;-79
2022/06/28 10:24:57;;;;;;;2.55;2.45;;;;;;;;;;5089817;28;20273;-76
2022/06/28 10:27:25;;;;;;;3.17;2.83;;;;;;;;;;5091149;28;20228;-79
2022/06/28 10:30:14;;;;;;;2.65;2.45;;;;;;;;;;5094406;28;20201;-78
2022/06/28 10:32:44;;;;;;;3.83;3.40;;;;;;;;;;5071867;28;20253;-79
2022/06/28 10:35:31;;;;;;;4.57;4.20;;;;;;;;;;5085914;28;20764;-77
2022/06/28 10:38:10;;;;;;;4.90;3.70;;;;;;;;;;5090492;28;20202;-80
2022/06/28 10:40:50;;;;;;;3.70;3.40;;;;;;;;;;5096395;28;20222;-78
2022/06/28 10:43:26;;;;;;;4.43;4.13;;;;;;;;;;5074200;28;20218;-81
2022/06/28 10:46:02;;;;;;;4.43;4.07;;;;;;;;;;5081702;28;21243;-82
2022/06/28 10:48:30;;;;;;;4.22;3.80;;;;;;;;;;5088292;28;20215;-77
2022/06/28 10:50:57;;;;;;;4.53;4.10;;;;;;;;;;5090988;28;20256;-82
2022/06/28 10:53:27;;;;;;;4.82;4.05;;;;;;;;;;5097942;28;20216;-78
2022/06/28 10:56:13;;;;;;;3.60;3.40;;;;;;;;;;5102538;27;20211;-78
2022/06/28 10:58:54;;;;;;;5.75;3.85;;;;;;;;;;5060180;28;21139;-78
2022/06/28 11:01:48;;;;;;;4.70;4.30;;;;;;;;;;5069776;28;20314;-74
2022/06/28 11:04:21;;;;;;;5.25;4.20;;;;;;;;;;5063226;28;20702;-78
2022/06/28 11:06:50;;;;;;;5.38;4.95;;;;;;;;;;5062131;28;20197;-78
2022/06/28 11:09:36;;;;;;;4.70;4.30;;;;;;;;;;5062582;28;20225;-78
2022/06/28 11:12:07;;;;;;;4.72;4.30;;;;;;;;;;5059978;28;20232;-81
2022/06/28 11:14:55;;;;;;;4.72;4.32;;;;;;;;;;5059986;28;20197;-78
2022/06/28 11:17:30;;;;;;;4.22;3.92;;;;;;;;;;5040675;28;21098;-78
2022/06/28 11:20:01;;;;;;;5.07;4.68;;;;;;;;;;5059373;28;20224;-77
2022/06/28 11:22:29;;;;;;;4.88;4.38;;;;;;;;;;5060815;28;20217;-79
2022/06/28 11:25:01;;;;;;;4.68;4.18;;;;;;;;;;5065782;28;21167;-78
2022/06/28 11:27:29;;;;;;;4.22;3.90;;;;;;;;;;5063966;28;20346;-78
2022/06/28 11:30:02;;;;;;;3.78;3.47;;;;;;;;;;5063173;28;20656;-79
2022/06/28 11:32:31;;;;;;;3.17;2.90;;;;;;;;;;5076772;27;20351;-76
2022/06/28 11:35:00;;;;;;;3.50;3.20;;;;;;;;;;5064633;28;20206;-78
2022/06/28 11:37:27;;;;;;;3.45;3.25;;;;;;;;;;5060527;28;20201;-76
2022/06/28 11:39:55;;;;;;;5.30;3.60;;;;;;;;;;5061083;28;20744;-77
2022/06/28 11:42:23;;;;;;;3.45;3.00;;;;;;;;;;5067862;28;20252;-80
2022/06/28 11:44:50;;;;;;;2.78;2.58;;;;;;;;;;5074325;28;20204;-77
2022/06/28 11:47:18;;;;;;;2.75;2.55;;;;;;;;;;5083792;28;20224;-77
2022/06/28 11:49:50;;;;;;;2.90;2.70;;;;;;;;;;5093013;28;20231;-78
2022/06/28 11:52:17;;;;;;;2.30;2.20;;;;;;;;;;5069403;28;20232;-78
2022/06/28 11:54:45;;;;;;;2.45;2.25;;;;;;;;;;5058234;28;20292;-76
2022/06/28 11:57:14;;;;;;;2.67;2.10;;;;;;;;;;5069272;28;20582;-73
2022/06/28 11:59:57;;;;;;;2.58;1.88;;;;;;;;;;5065692;28;20259;-78
2022/06/28 12:02:41;;;;;;;3.30;1.80;;;;;;;;;;5060981;28;20271;-75
2022/06/28 12:05:09;;;;;;;2.45;1.70;;;;;;;;;;5059467;28;20235;-79
2022/06/28 12:07:44;;;;;;;1.85;1.55;;;;;;;;;;5064262;28;20201;-77
2022/06/28 12:10:25;;;;;;;1.80;1.70;;;;;;;;;;5073406;28;20211;-77
2022/06/28 12:12:53;;;;;;;1.70;1.60;;;;;;;;;;5067184;28;20331;-77
2022/06/28 12:15:27;;;;;;;2.20;1.65;;;;;;;;;;5087036;28;20267;-77
2022/06/28 12:17:56;;;;;;;1.85;1.75;;;;;;;;;;5083807;28;20232;-79
2022/06/28 12:20:24;;;;;;;2.63;1.70;;;;;;;;;;5068264;28;20237;-74
2022/06/28 12:22:58;;;;;;;1.85;1.75;;;;;;;;;;5062303;28;20268;-76
2022/06/28 12:25:26;;;;;;;2.00;1.90;;;;;;;;;;5063461;28;20276;-76
2022/06/28 12:27:53;;;;;;;1.83;1.73;;;;;;;;;;5086946;28;20296;-75
2022/06/28 12:30:21;;;;;;;1.80;1.67;;;;;;;;;;5066130;28;20198;-77
2022/06/28 12:32:56;;;;;;;1.90;1.80;;;;;;;;;;5067757;28;20319;-76
2022/06/28 12:35:23;;;;;;;2.45;1.90;;;;;;;;;;5085291;28;20228;-76
2022/06/28 12:37:52;;;;;;;1.95;1.85;;;;;;;;;;5084227;28;20204;-76
2022/06/28 12:40:21;;;;;;;2.08;1.83;;;;;;;;;;5084284;28;20235;-76
2022/06/28 12:42:52;;;;;;;2.53;1.65;;;;;;;;;;5085522;28;20226;-78
2022/06/28 12:45:19;;;;;;;1.92;1.83;;;;;;;;;;5079198;28;20661;-76
2022/06/28 12:47:46;;;;;;;3.38;2.08;;;;;;;;;;5071211;28;20336;-77
2022/06/28 12:50:15;;;;;;;2.25;2.05;;;;;;;;;;5079548;28;20703;-77
2022/06/28 12:52:43;;;;;;;2.05;1.90;;;;;;;;;;5085596;28;20228;-79
2022/06/28 12:55:10;;;;;;;2.08;1.90;;;;;;;;;;5078246;28;20273;-78
2022/06/28 12:57:38;;;;;;;1.80;1.70;;;;;;;;;;5064223;28;20248;-76
2022/06/28 13:00:10;;;;;;;3.03;1.80;;;;;;;;;;5066999;28;20238;-77
2022/06/28 13:02:37;;;;;;;1.70;1.60;;;;;;;;;;5075095;27;20245;-76
2022/06/28 13:05:05;;;;;;;3.17;1.45;;;;;;;;;;5056680;28;20201;-75
2022/06/28 13:07:33;;;;;;;2.15;1.60;;;;;;;;;;5062896;28;20655;-76
2022/06/28 13:10:00;;;;;;;2.85;1.70;;;;;;;;;;5058806;28;20781;-77
2022/06/28 13:12:27;;;;;;;2.88;1.67;;;;;;;;;;5082049;28;20229;-78
2022/06/28 13:14:55;;;;;;;1.75;1.60;;;;;;;;;;5085680;28;20292;-77
2022/06/28 13:17:25;;;;;;;1.65;1.55;;;;;;;;;;5080454;28;20247;-75
2022/06/28 13:19:53;;;;;;;1.75;1.60;;;;;;;;;;5065772;28;20752;-78
2022/06/28 13:22:40;;;;;;;1.60;1.50;;;;;;;;;;5067763;28;20233;-75
2022/06/28 13:25:08;;;;;;;2.58;1.50;;;;;;;;;;5059772;28;20264;-77
2022/06/28 13:27:36;;;;;;;2.35;1.73;;;;;;;;;;5064254;28;20679;-78
2022/06/28 13:30:04;;;;;;;1.52;1.42;;;;;;;;;;5050515;28;20319;-76
2022/06/28 13:32:31;;;;;;;2.33;1.55;;;;;;;;;;5060469;28;20245;-78
2022/06/28 13:34:59;;;;;;;1.70;1.60;;;;;;;;;;5061978;28;21372;-77
2022/06/28 13:37:29;;;;;;;1.90;1.70;;;;;;;;;;5077354;27;21030;-79
2022/06/28 13:39:56;;;;;;;1.58;1.48;;;;;;;;;;5058006;28;21274;-78
2022/06/28 13:42:24;;;;;;;2.45;1.60;;;;;;;;;;5056394;28;20232;-79
2022/06/28 13:44:52;;;;;;;1.52;1.40;;;;;;;;;;5064619;28;20274;-76
2022/06/28 13:47:20;;;;;;;1.95;1.70;;;;;;;;;;5060559;28;20205;-78
2022/06/28 13:49:47;;;;;;;2.30;1.70;;;;;;;;;;5062018;28;20630;-76
2022/06/28 13:52:14;;;;;;;3.00;1.63;;;;;;;;;;5061100;28;20224;-78
2022/06/28 13:54:42;;;;;;;1.70;1.60;;;;;;;;;;5068660;28;20209;-75
2022/06/28 13:57:09;;;;;;;1.92;1.73;;;;;;;;;;5056190;28;20664;-77
2022/06/28 13:59:36;;;;;;;3.53;2.00;;;;;;;;;;5061772;28;20295;-76
2022/06/28 14:02:04;;;;;;;2.00;1.90;;;;;;;;;;5079646;28;20376;-79
2022/06/28 14:04:31;;;;;;;1.73;1.63;;;;;;;;;;5057728;28;20591;-80
2022/06/28 14:06:59;;;;;;;2.15;1.80;;;;;;;;;;5061130;28;20193;-77
2022/06/28 14:09:26;;;;;;;3.70;1.95;;;;;;;;;;5042666;28;20212;-78
2022/06/28 14:11:53;;;;;;;2.05;1.95;;;;;;;;;;5057687;28;22114;-78
2022/06/28 14:14:20;;;;;;;3.15;1.90;;;;;;;;;;5055552;28;20220;-78
2022/06/28 14:16:48;;;;;;;2.38;2.10;;;;;;;;;;5050767;28;20229;-77
2022/06/28 14:19:15;;;;;;;2.95;2.20;;;;;;;;;;5076654;28;20204;-77
2022/06/28 14:21:42;;;;;;;2.42;2.30;;;;;;;;;;5073917;28;20241;-76
2022/06/28 14:24:10;;;;;;;4.35;2.33;;;;;;;;;;5059411;28;20213;-75
2022/06/28 14:26:38;;;;;;;3.80;2.30;;;;;;;;;;5074514;28;20205;-78
2022/06/28 14:29:05;;;;;;;5.03;2.40;;;;;;;;;;5083111;28;20232;-77
2022/06/28 14:31:32;;;;;;;2.33;1.98;;;;;;;;;;5103673;28;20721;-78
2022/06/28 14:34:15;;;;;;;3.08;2.20;;;;;;;;;;5086712;28;20201;-77
2022/06/28 14:36:47;;;;;;;4.35;2.80;;;;;;;;;;5092420;28;20614;-77
2022/06/28 14:39:14;;;;;;;3.67;2.38;;;;;;;;;;5087268;28;20728;-78
2022/06/28 14:41:41;;;;;;;2.30;2.10;;;;;;;;;;5082919;28;20255;-78
2022/06/28 14:44:09;;;;;;;2.47;2.13;;;;;;;;;;5080202;28;20205;-76
2022/06/28 14:46:36;;;;;;;2.42;2.20;;;;;;;;;;5063592;28;20307;-77
2022/06/28 14:49:03;;;;;;;2.20;2.10;;;;;;;;;;5083549;28;20248;-77
2022/06/28 14:51:31;;;;;;;2.60;2.40;;;;;;;;;;5085981;28;20307;-77
2022/06/28 14:53:58;;;;;;;5.45;2.25;;;;;;;;;;5078441;28;20216;-77
2022/06/28 14:56:26;;;;;;;3.08;2.00;;;;;;;;;;5086014;28;20836;-77
2022/06/28 14:58:53;;;;;;;3.83;2.30;;;;;;;;;;5059092;28;20258;-77
2022/06/28 15:01:21;;;;;;;2.72;2.10;;;;;;;;;;5061548;28;20327;-75
2022/06/28 15:03:48;;;;;;;2.47;1.85;;;;;;;;;;5062297;28;20205;-78
2022/06/28 15:06:16;;;;;;;2.10;2.00;;;;;;;;;;5061222;28;20204;-77
2022/06/28 15:08:43;;;;;;;2.88;1.88;;;;;;;;;;5059164;28;21849;-76